Ben Rinnes — V7MZ5 — position and weather

sailwx.info

Track history (hours):
 
Tides and Currents Weather Stations Pressure Air Temp Water Temp Dewpoint Dewpoint Depression Visibility Wind Speed Wind Dir Waves Ship Positions

Ben Rinnes

Last reported at 2018-Feb-24 10:55 UTC. Time now 2018-Feb-24 18:05 UTC.
Position N 29°45' W 095°06'.

Length 179 m; draft 10.4 m.

Type: Cargo ship. MMSI: 538006425.

Date/timePositionNaut miles runAvg speedWind from/ knotsBaromVisibWave heightAir tempDewpointWater temp
2018-Feb-24 10:55N 29°45' W 095°06'0 0.0
2018-Feb-24 10:28N 29°45' W 095°06'0 0.0
2018-Feb-24 09:58N 29°45' W 095°06'0 0.0
2018-Feb-24 09:28N 29°45' W 095°06'0 0.0
2018-Feb-24 08:58N 29°45' W 095°06'0 0.0
2018-Feb-24 08:28N 29°45' W 095°06'0 0.0
2018-Feb-24 07:58N 29°45' W 095°06'0 0.0
2018-Feb-24 07:28N 29°45' W 095°06'0 0.0
2018-Feb-24 06:55N 29°45' W 095°06'0 0.0
2018-Feb-24 06:28N 29°45' W 095°06'0 0.0
2018-Feb-24 05:58N 29°45' W 095°06'0 0.0
2018-Feb-24 05:28N 29°45' W 095°06'0 0.0
2018-Feb-24 04:58N 29°45' W 095°06'0 0.0
2018-Feb-24 04:28N 29°45' W 095°06'0 0.0
2018-Feb-24 03:58N 29°45' W 095°06'0 0.0
2018-Feb-24 03:28N 29°45' W 095°06'0 0.0
2018-Feb-24 02:55N 29°45' W 095°06'0 0.0
2018-Feb-24 02:25N 29°45' W 095°06'0 0.0
2018-Feb-24 01:55N 29°45' W 095°06'0 0.0
2018-Feb-24 01:25N 29°45' W 095°06'0 0.0
2018-Feb-24 00:58N 29°45' W 095°06'0 0.0
2018-Feb-24 00:28N 29°45' W 095°06'0 0.0
2018-Feb-23 23:58N 29°45' W 095°06'0 0.0
2018-Feb-23 23:25N 29°45' W 095°06'0 0.0
2018-Feb-23 22:58N 29°45' W 095°06'0 0.0
2018-Feb-23 22:25N 29°45' W 095°06'0 0.0
2018-Feb-23 21:55N 29°45' W 095°06'0 0.0
2018-Feb-23 21:28N 29°45' W 095°06'0 0.0
2018-Feb-23 20:43N 29°45' W 095°06'0 0.0
2018-Feb-23 20:25N 29°45' W 095°06'0 0.0
2018-Feb-23 19:55N 29°45' W 095°06'0 0.0
2018-Feb-23 19:25N 29°45' W 095°06'0 0.0
2018-Feb-23 18:49N 29°45' W 095°06'0 0.0
2018-Feb-23 18:25N 29°45' W 095°06'0 0.0
2018-Feb-23 17:49N 29°45' W 095°06'0 0.0
2018-Feb-23 17:25N 29°45' W 095°06'0 0.0
2018-Feb-23 16:55N 29°45' W 095°06'0 0.0
2018-Feb-23 16:25N 29°45' W 095°06'0 0.0
2018-Feb-23 14:33N 29°45' W 095°06'0 1.3
2018-Feb-23 14:29N 29°45' W 095°06'  
2018-Feb-21 04:45N 29°44' W 095°12'1 3.2
2018-Feb-21 04:29N 29°45' W 095°11'2 5.0
2018-Feb-21 04:00N 29°44' W 095°09'3 5.4
2018-Feb-21 03:29N 29°45' W 095°06'3 6.7
2018-Feb-21 02:59N 29°44' W 095°02'4 8.6
2018-Feb-21 02:30N 29°41' W 094°59'510.8
2018-Feb-21 02:00N 29°36' W 094°57'510.9
2018-Feb-21 01:30N 29°31' W 094°53'811.4
2018-Feb-21 00:50N 29°24' W 094°49'412.1
2018-Feb-21 00:30N 29°21' W 094°47'611.7
2018-Feb-20 23:59N 29°20' W 094°40'510.7
2018-Feb-20 23:31N 29°17' W 094°35'3 4.9
2018-Feb-20 22:57N 29°16' W 094°32'1 0.1
2018-Feb-20 14:15N 29°16' W 094°32'0 0.0
2018-Feb-20 13:54N 29°16' W 094°32'0 0.0
2018-Feb-20 13:30N 29°16' W 094°32'0 0.0
2018-Feb-20 12:57N 29°16' W 094°32'0 0.0
2018-Feb-20 12:27N 29°16' W 094°32'0 0.0
2018-Feb-20 09:12N 29°16' W 094°32'0 0.1
2018-Feb-20 09:00N 29°16' W 094°32'0 0.0
2018-Feb-20 06:48N 29°16' W 094°32'0 0.1
2018-Feb-20 06:21N 29°16' W 094°32'0 0.0
2018-Feb-20 05:48N 29°16' W 094°32'0 0.0
2018-Feb-19 19:51N 29°16' W 094°32'0 0.0
2018-Feb-19 19:30N 29°16' W 094°32'0 0.0
2018-Feb-19 16:48N 29°16' W 094°32'0 0.0
2018-Feb-19 16:21N 29°16' W 094°32'0 0.0
2018-Feb-19 15:57N 29°16' W 094°32'0 0.0
2018-Feb-19 15:27N 29°16' W 094°32'0 0.0
2018-Feb-19 14:51N 29°16' W 094°32'0 0.0
2018-Feb-19 14:15N 29°16' W 094°32'0 0.0
2018-Feb-19 14:00N 29°16' W 094°32'0 0.0
2018-Feb-19 11:12N 29°16' W 094°32'0 0.0
2018-Feb-19 10:51N 29°16' W 094°32'0 0.0
2018-Feb-19 10:27N 29°16' W 094°32'0 0.0
2018-Feb-19 10:00N 29°16' W 094°32'0 0.0
2018-Feb-19 09:27N 29°16' W 094°32'0 0.0
2018-Feb-19 09:00N 29°16' W 094°32'0 0.0
2018-Feb-19 08:24N 29°16' W 094°32'0 0.0
2018-Feb-19 08:00N 29°16' W 094°32'0 0.0
2018-Feb-19 07:27N 29°16' W 094°32'0 0.0
2018-Feb-19 07:00N 29°16' W 094°32'0 0.0
2018-Feb-19 06:27N 29°16' W 094°32'0 0.0
2018-Feb-19 06:00N 29°16' W 094°32'0 0.0
2018-Feb-19 05:24N 29°16' W 094°32'0 0.0
2018-Feb-19 05:00N 29°16' W 094°32'0 0.0
2018-Feb-19 04:03N 29°16' W 094°32'0 0.0
2018-Feb-19 03:42N 29°16' W 094°32'0 0.0
2018-Feb-19 01:48N 29°16' W 094°32'0 0.0
2018-Feb-19 01:21N 29°16' W 094°32'0 0.0
2018-Feb-18 16:29N 29°16' W 094°31'0 0.0
2018-Feb-18 15:38N 29°16' W 094°31'0 0.0
2018-Feb-18 09:18N 29°16' W 094°32'0 0.0
2018-Feb-18 08:59N 29°16' W 094°32'0 0.0
2018-Feb-18 08:29N 29°16' W 094°32'0 0.0
2018-Feb-18 07:57N 29°16' W 094°32'0 0.0
2018-Feb-18 07:29N 29°16' W 094°32'0 0.0
2018-Feb-18 07:00N 29°16' W 094°32'0 0.0
2018-Feb-18 06:08N 29°16' W 094°32'0 0.0
2018-Feb-18 05:53N 29°16' W 094°32'0 0.0
2018-Feb-18 05:30N 29°16' W 094°32'0 0.0
2018-Feb-18 04:56N 29°16' W 094°32'0 0.0
2018-Feb-18 03:35N 29°16' W 094°32'0 0.0
2018-Feb-18 03:20N 29°16' W 094°32'0 0.0
2018-Feb-18 02:56N 29°16' W 094°32'0 0.0
2018-Feb-18 02:26N 29°16' W 094°32'0 0.0
2018-Feb-18 01:56N 29°16' W 094°32'0 0.0
2018-Feb-18 01:23N 29°16' W 094°32'0 0.0
2018-Feb-18 00:59N 29°16' W 094°32'0 0.1
2018-Feb-18 00:23N 29°16' W 094°32'0 0.0
2018-Feb-17 23:59N 29°16' W 094°32'0 0.0
2018-Feb-17 11:50N 29°16' W 094°32'0 0.0
2018-Feb-17 07:32N 29°16' W 094°32'0 0.0
2018-Feb-17 07:05N 29°16' W 094°32'0 0.1
2018-Feb-17 06:59N 29°16' W 094°32'0 0.0
2018-Feb-17 06:02N 29°16' W 094°31'0 0.0
2018-Feb-17 05:50N 29°16' W 094°31'0 0.0
2018-Feb-17 05:20N 29°16' W 094°31'0 0.0
2018-Feb-17 04:53N 29°16' W 094°32'0 0.1
2018-Feb-17 04:20N 29°16' W 094°32'0 0.0
2018-Feb-17 02:59N 29°16' W 094°32'0 0.1
2018-Feb-17 02:29N 29°16' W 094°32'0 0.0
2018-Feb-17 01:47N 29°16' W 094°32'0 0.0
2018-Feb-17 01:29N 29°16' W 094°32'0 0.0
2018-Feb-17 00:56N 29°16' W 094°32'0 0.0
2018-Feb-17 00:29N 29°16' W 094°32'0 0.0
2018-Feb-16 22:50N 29°16' W 094°32'0 0.0
2018-Feb-16 22:20N 29°16' W 094°32'0 0.0
2018-Feb-16 03:08N 29°16' W 094°32'0 0.0
2018-Feb-16 02:47N 29°16' W 094°32'0 0.0
2018-Feb-16 02:26N 29°16' W 094°32'0 0.0
2018-Feb-16 01:56N 29°16' W 094°32'0 0.0
2018-Feb-16 01:14N 29°16' W 094°32'0 0.0
2018-Feb-16 00:44N 29°16' W 094°32'0 0.0
2018-Feb-16 00:29N 29°16' W 094°32'0 0.0
2018-Feb-15 09:26N 29°16' W 094°32'0 0.0
2018-Feb-15 08:11N 29°16' W 094°32'0 0.0
2018-Feb-15 07:59N 29°16' W 094°32'0 0.0
2018-Feb-15 06:38N 29°16' W 094°32'0 0.0
2018-Feb-15 06:20N 29°16' W 094°32'0 0.0
2018-Feb-15 05:59N 29°16' W 094°32'0 0.0
2018-Feb-15 05:11N 29°16' W 094°32'0 0.0
2018-Feb-15 04:59N 29°16' W 094°32'0 0.0
2018-Feb-15 04:29N 29°16' W 094°32'0 0.0
2018-Feb-15 03:59N 29°16' W 094°32'0 0.0
2018-Feb-15 03:29N 29°16' W 094°32'0 0.0
2018-Feb-15 02:56N 29°16' W 094°32'0 0.0
2018-Feb-15 02:26N 29°16' W 094°32'0 0.0
2018-Feb-15 01:59N 29°16' W 094°32'0 0.0
2018-Feb-15 01:26N 29°16' W 094°32'0 0.0
2018-Feb-15 00:56N 29°16' W 094°32'0 0.0
2018-Feb-14 23:47N 29°16' W 094°32'0 0.0
2018-Feb-14 23:26N 29°16' W 094°32'0 0.0
2018-Feb-14 22:35N 29°16' W 094°32'0 0.1
2018-Feb-14 22:29N 29°16' W 094°32'0 0.0
2018-Feb-14 19:32N 29°16' W 094°32'0 0.0
2018-Feb-14 19:26N 29°16' W 094°32'0 0.0
2018-Feb-14 18:50N 29°16' W 094°32'0 0.0
2018-Feb-14 18:29N 29°16' W 094°32'0 0.0
2018-Feb-14 17:44N 29°16' W 094°32'0 0.0
2018-Feb-14 17:23N 29°16' W 094°32'0 0.0
2018-Feb-14 16:47N 29°16' W 094°32'0 0.0
2018-Feb-14 16:14N 29°16' W 094°32'0 0.0
2018-Feb-14 15:26N 29°16' W 094°32'0 0.0
2018-Feb-14 13:56N 29°16' W 094°32'0 0.0
2018-Feb-14 13:29N 29°16' W 094°32'0 0.0
2018-Feb-14 12:32N 29°16' W 094°32'  
Track history (hours):
 
Tides and Currents Weather Stations Pressure Air Temp Water Temp Dewpoint Dewpoint Depression Visibility Wind Speed Wind Dir Waves Ship Positions

Ben Rinnes

Last reported at 2018-Feb-24 10:55 UTC. Time now 2018-Feb-24 18:05 UTC.
Position N 29°45' W 095°06'.

Length 179 m; draft 10.4 m.

Type: Cargo ship. MMSI: 538006425.

Date/timePositionNaut miles runAvg speedWind from/ knotsBaromVisibWave heightAir tempDewpointWater temp
2018-Feb-24 10:55N 29°45' W 095°06'0 0.0
2018-Feb-24 10:28N 29°45' W 095°06'0 0.0
2018-Feb-24 09:58N 29°45' W 095°06'0 0.0
2018-Feb-24 09:28N 29°45' W 095°06'0 0.0
2018-Feb-24 08:58N 29°45' W 095°06'0 0.0
2018-Feb-24 08:28N 29°45' W 095°06'0 0.0
2018-Feb-24 07:58N 29°45' W 095°06'0 0.0
2018-Feb-24 07:28N 29°45' W 095°06'0 0.0
2018-Feb-24 06:55N 29°45' W 095°06'0 0.0
2018-Feb-24 06:28N 29°45' W 095°06'0 0.0
2018-Feb-24 05:58N 29°45' W 095°06'0 0.0
2018-Feb-24 05:28N 29°45' W 095°06'0 0.0
2018-Feb-24 04:58N 29°45' W 095°06'0 0.0
2018-Feb-24 04:28N 29°45' W 095°06'0 0.0
2018-Feb-24 03:58N 29°45' W 095°06'0 0.0
2018-Feb-24 03:28N 29°45' W 095°06'0 0.0
2018-Feb-24 02:55N 29°45' W 095°06'0 0.0
2018-Feb-24 02:25N 29°45' W 095°06'0 0.0
2018-Feb-24 01:55N 29°45' W 095°06'0 0.0
2018-Feb-24 01:25N 29°45' W 095°06'0 0.0
2018-Feb-24 00:58N 29°45' W 095°06'0 0.0
2018-Feb-24 00:28N 29°45' W 095°06'0 0.0
2018-Feb-23 23:58N 29°45' W 095°06'0 0.0
2018-Feb-23 23:25N 29°45' W 095°06'0 0.0
2018-Feb-23 22:58N 29°45' W 095°06'0 0.0
2018-Feb-23 22:25N 29°45' W 095°06'0 0.0
2018-Feb-23 21:55N 29°45' W 095°06'0 0.0
2018-Feb-23 21:28N 29°45' W 095°06'0 0.0
2018-Feb-23 20:43N 29°45' W 095°06'0 0.0
2018-Feb-23 20:25N 29°45' W 095°06'0 0.0
2018-Feb-23 19:55N 29°45' W 095°06'0 0.0
2018-Feb-23 19:25N 29°45' W 095°06'0 0.0
2018-Feb-23 18:49N 29°45' W 095°06'0 0.0
2018-Feb-23 18:25N 29°45' W 095°06'0 0.0
2018-Feb-23 17:49N 29°45' W 095°06'0 0.0
2018-Feb-23 17:25N 29°45' W 095°06'0 0.0
2018-Feb-23 16:55N 29°45' W 095°06'0 0.0
2018-Feb-23 16:25N 29°45' W 095°06'0 0.0
2018-Feb-23 14:33N 29°45' W 095°06'0 1.3
2018-Feb-23 14:29N 29°45' W 095°06'  
2018-Feb-21 04:45N 29°44' W 095°12'1 3.2
2018-Feb-21 04:29N 29°45' W 095°11'2 5.0
2018-Feb-21 04:00N 29°44' W 095°09'3 5.4
2018-Feb-21 03:29N 29°45' W 095°06'3 6.7
2018-Feb-21 02:59N 29°44' W 095°02'4 8.6
2018-Feb-21 02:30N 29°41' W 094°59'510.8
2018-Feb-21 02:00N 29°36' W 094°57'510.9
2018-Feb-21 01:30N 29°31' W 094°53'811.4
2018-Feb-21 00:50N 29°24' W 094°49'412.1
2018-Feb-21 00:30N 29°21' W 094°47'611.7
2018-Feb-20 23:59N 29°20' W 094°40'510.7
2018-Feb-20 23:31N 29°17' W 094°35'3 4.9
2018-Feb-20 22:57N 29°16' W 094°32'1 0.1
2018-Feb-20 14:15N 29°16' W 094°32'0 0.0
2018-Feb-20 13:54N 29°16' W 094°32'0 0.0
2018-Feb-20 13:30N 29°16' W 094°32'0 0.0
2018-Feb-20 12:57N 29°16' W 094°32'0 0.0
2018-Feb-20 12:27N 29°16' W 094°32'0 0.0
2018-Feb-20 09:12N 29°16' W 094°32'0 0.1
2018-Feb-20 09:00N 29°16' W 094°32'0 0.0
2018-Feb-20 06:48N 29°16' W 094°32'0 0.1
2018-Feb-20 06:21N 29°16' W 094°32'0 0.0
2018-Feb-20 05:48N 29°16' W 094°32'0 0.0
2018-Feb-19 19:51N 29°16' W 094°32'0 0.0
2018-Feb-19 19:30N 29°16' W 094°32'0 0.0
2018-Feb-19 16:48N 29°16' W 094°32'0 0.0
2018-Feb-19 16:21N 29°16' W 094°32'0 0.0
2018-Feb-19 15:57N 29°16' W 094°32'0 0.0
2018-Feb-19 15:27N 29°16' W 094°32'0 0.0
2018-Feb-19 14:51N 29°16' W 094°32'0 0.0
2018-Feb-19 14:15N 29°16' W 094°32'0 0.0
2018-Feb-19 14:00N 29°16' W 094°32'0 0.0
2018-Feb-19 11:12N 29°16' W 094°32'0 0.0
2018-Feb-19 10:51N 29°16' W 094°32'0 0.0
2018-Feb-19 10:27N 29°16' W 094°32'0 0.0
2018-Feb-19 10:00N 29°16' W 094°32'0 0.0
2018-Feb-19 09:27N 29°16' W 094°32'0 0.0
2018-Feb-19 09:00N 29°16' W 094°32'0 0.0
2018-Feb-19 08:24N 29°16' W 094°32'0 0.0
2018-Feb-19 08:00N 29°16' W 094°32'0 0.0
2018-Feb-19 07:27N 29°16' W 094°32'0 0.0
2018-Feb-19 07:00N 29°16' W 094°32'0 0.0
2018-Feb-19 06:27N 29°16' W 094°32'0 0.0
2018-Feb-19 06:00N 29°16' W 094°32'0 0.0
2018-Feb-19 05:24N 29°16' W 094°32'0 0.0
2018-Feb-19 05:00N 29°16' W 094°32'0 0.0
2018-Feb-19 04:03N 29°16' W 094°32'0 0.0
2018-Feb-19 03:42N 29°16' W 094°32'0 0.0
2018-Feb-19 01:48N 29°16' W 094°32'0 0.0
2018-Feb-19 01:21N 29°16' W 094°32'0 0.0
2018-Feb-18 16:29N 29°16' W 094°31'0 0.0
2018-Feb-18 15:38N 29°16' W 094°31'0 0.0
2018-Feb-18 09:18N 29°16' W 094°32'0 0.0
2018-Feb-18 08:59N 29°16' W 094°32'0 0.0
2018-Feb-18 08:29N 29°16' W 094°32'0 0.0
2018-Feb-18 07:57N 29°16' W 094°32'0 0.0
2018-Feb-18 07:29N 29°16' W 094°32'0 0.0
2018-Feb-18 07:00N 29°16' W 094°32'0 0.0
2018-Feb-18 06:08N 29°16' W 094°32'0 0.0
2018-Feb-18 05:53N 29°16' W 094°32'0 0.0
2018-Feb-18 05:30N 29°16' W 094°32'0 0.0
2018-Feb-18 04:56N 29°16' W 094°32'0 0.0
2018-Feb-18 03:35N 29°16' W 094°32'0 0.0
2018-Feb-18 03:20N 29°16' W 094°32'0 0.0
2018-Feb-18 02:56N 29°16' W 094°32'0 0.0
2018-Feb-18 02:26N 29°16' W 094°32'0 0.0
2018-Feb-18 01:56N 29°16' W 094°32'0 0.0
2018-Feb-18 01:23N 29°16' W 094°32'0 0.0
2018-Feb-18 00:59N 29°16' W 094°32'0 0.1
2018-Feb-18 00:23N 29°16' W 094°32'0 0.0
2018-Feb-17 23:59N 29°16' W 094°32'0 0.0
2018-Feb-17 11:50N 29°16' W 094°32'0 0.0
2018-Feb-17 07:32N 29°16' W 094°32'0 0.0
2018-Feb-17 07:05N 29°16' W 094°32'0 0.1
2018-Feb-17 06:59N 29°16' W 094°32'0 0.0
2018-Feb-17 06:02N 29°16' W 094°31'0 0.0
2018-Feb-17 05:50N 29°16' W 094°31'0 0.0
2018-Feb-17 05:20N 29°16' W 094°31'0 0.0
2018-Feb-17 04:53N 29°16' W 094°32'0 0.1
2018-Feb-17 04:20N 29°16' W 094°32'0 0.0
2018-Feb-17 02:59N 29°16' W 094°32'0 0.1
2018-Feb-17 02:29N 29°16' W 094°32'0 0.0
2018-Feb-17 01:47N 29°16' W 094°32'0 0.0
2018-Feb-17 01:29N 29°16' W 094°32'0 0.0
2018-Feb-17 00:56N 29°16' W 094°32'0 0.0
2018-Feb-17 00:29N 29°16' W 094°32'0 0.0
2018-Feb-16 22:50N 29°16' W 094°32'0 0.0
2018-Feb-16 22:20N 29°16' W 094°32'0 0.0
2018-Feb-16 03:08N 29°16' W 094°32'0 0.0
2018-Feb-16 02:47N 29°16' W 094°32'0 0.0
2018-Feb-16 02:26N 29°16' W 094°32'0 0.0
2018-Feb-16 01:56N 29°16' W 094°32'0 0.0
2018-Feb-16 01:14N 29°16' W 094°32'0 0.0
2018-Feb-16 00:44N 29°16' W 094°32'0 0.0
2018-Feb-16 00:29N 29°16' W 094°32'0 0.0
2018-Feb-15 09:26N 29°16' W 094°32'0 0.0
2018-Feb-15 08:11N 29°16' W 094°32'0 0.0
2018-Feb-15 07:59N 29°16' W 094°32'0 0.0
2018-Feb-15 06:38N 29°16' W 094°32'0 0.0
2018-Feb-15 06:20N 29°16' W 094°32'0 0.0
2018-Feb-15 05:59N 29°16' W 094°32'0 0.0
2018-Feb-15 05:11N 29°16' W 094°32'0 0.0
2018-Feb-15 04:59N 29°16' W 094°32'0 0.0
2018-Feb-15 04:29N 29°16' W 094°32'0 0.0
2018-Feb-15 03:59N 29°16' W 094°32'0 0.0
2018-Feb-15 03:29N 29°16' W 094°32'0 0.0
2018-Feb-15 02:56N 29°16' W 094°32'0 0.0
2018-Feb-15 02:26N 29°16' W 094°32'0 0.0
2018-Feb-15 01:59N 29°16' W 094°32'0 0.0
2018-Feb-15 01:26N 29°16' W 094°32'0 0.0
2018-Feb-15 00:56N 29°16' W 094°32'0 0.0
2018-Feb-14 23:47N 29°16' W 094°32'0 0.0
2018-Feb-14 23:26N 29°16' W 094°32'0 0.0
2018-Feb-14 22:35N 29°16' W 094°32'0 0.1
2018-Feb-14 22:29N 29°16' W 094°32'0 0.0
2018-Feb-14 19:32N 29°16' W 094°32'0 0.0
2018-Feb-14 19:26N 29°16' W 094°32'0 0.0
2018-Feb-14 18:50N 29°16' W 094°32'0 0.0
2018-Feb-14 18:29N 29°16' W 094°32'0 0.0
2018-Feb-14 17:44N 29°16' W 094°32'0 0.0
2018-Feb-14 17:23N 29°16' W 094°32'0 0.0
2018-Feb-14 16:47N 29°16' W 094°32'0 0.0
2018-Feb-14 16:14N 29°16' W 094°32'0 0.0
2018-Feb-14 15:26N 29°16' W 094°32'0 0.0
2018-Feb-14 13:56N 29°16' W 094°32'0 0.0
2018-Feb-14 13:29N 29°16' W 094°32'0 0.0
2018-Feb-14 12:32N 29°16' W 094°32'  

Dump ship's entire track history